La Guardia Airport
KLGA : now visible

Airfield :











YOU CAN JOIN US ON...

 
LOGIN :

Register | Disclaimer

   EN    FR    IT 

 









Legend :    VFR   Marginal VFR   IFR   Intensive IFR   Very Intensive IFR
Visi :
Ceiling :
>= 8 km
>= 3000ft
5 to 8 km
1000 to 3000 ft
1500m to 5 km
500 to 1000 ft
800 to 1500m
200 to 500 ft
< 800m
< 200 ft
Symbols :   Thunderstorms  Fog  Heavy snow  Heavy precipitations  Wind > 20 kt






- Airport Elevation : 21 ft
- IATA code : LGA


KLGA - La Guardia

CURRENT METAR :
  • 110951Z 19008KT 10SM FEW020 SCT130 SCT200 SCT250 24/21 A2969 RMK AO2 SLP055 T02440206

EXPIRED METARs :
  • 110851Z 20010KT 10SM FEW010 SCT090 SCT200 24/21 A2969 RMK AO2 SLP053 60000 T02440206 51013
  • 110751Z 21013KT 10SM FEW010 SCT016 SCT090 24/21 A2967 RMK AO2 SLP048 T02440206

TAF KLGA
Valid from the 11 at 10:00 until the 12 at 12:00 UTC


111006Z 1110/1212 20009KT P6SM SCT015 SCT120
FM111400 19010KT P6SM SCT025 SCT120
FM111800 18015G22KT P6SM VCSH SCT035
PROB30 1119/1124 2SM +TSRA SCT020 BKN035CB
FM120000 20013G20KT P6SM VCSH SCT050
FM120300 23010KT P6SM SCT050
FM120900 26008KT P6SM SCT050
KZNY FIR / North America



MET'MAP, your aeronautical weather chart ! - Copyright ORBIFLY December 2007 - Disclaimer

ORBIFLY MET'MAP TEAM :

Programming & Development : Alexandra Zaïnal
Concept & original design : Baudouin d'Aumeries
Assistance for programming : Marc-Olivier Méhu
Technical & hardware support : Manuel Goepfert

Contact : metmap@orbifly.com




SOURCES & CREDITS :

   NOAA       Earth
Advisory